Time;durP1;ratioP1;P1;durP2;ratioP2;P2;SDS_P1;SDS_P2;PMS_P1;PMS_P2;Temp;Humidity;BMP_temperature;BMP_pressure;BME280_temperature;BME280_humidity;BME280_pressure;Samples;Min_cycle;Max_cycle;Signal;HPM_P1;HPM_P2
2022/07/29 00:00:37;;;;;;;0.00;0.00;;;14.40;99.90;;;;;;5051913;28;20036;-84
2022/07/29 00:03:03;;;;;;;0.00;0.00;;;14.40;99.90;;;;;;5077641;28;20047;-83
2022/07/29 00:05:29;;;;;;;0.00;0.00;;;14.40;99.90;;;;;;5061240;28;20062;-84
2022/07/29 00:07:54;;;;;;;0.10;0.10;;;14.40;99.90;;;;;;5077619;28;20057;-83
2022/07/29 00:10:20;;;;;;;0.00;0.00;;;14.40;99.90;;;;;;5075242;28;20119;-83
2022/07/29 00:12:46;;;;;;;0.10;0.10;;;14.40;99.90;;;;;;5060333;28;20036;-83
2022/07/29 00:15:12;;;;;;;0.00;0.00;;;14.40;99.90;;;;;;5057315;28;20049;-83
2022/07/29 00:17:38;;;;;;;0.10;0.10;;;14.50;99.90;;;;;;5057869;28;20462;-83
2022/07/29 00:20:05;;;;;;;0.00;0.00;;;14.50;99.90;;;;;;5057315;28;20076;-83
2022/07/29 00:22:30;;;;;;;0.00;0.00;;;14.40;99.90;;;;;;5071844;28;20048;-83
2022/07/29 00:24:56;;;;;;;0.10;0.10;;;14.40;99.90;;;;;;5057584;28;20098;-82
2022/07/29 00:27:22;;;;;;;0.00;0.00;;;14.40;99.90;;;;;;5059238;28;20095;-83
2022/07/29 00:29:47;;;;;;;0.10;0.10;;;14.50;99.90;;;;;;5037518;28;20060;-83
2022/07/29 00:32:13;;;;;;;0.17;0.17;;;14.50;99.90;;;;;;5069255;28;20036;-83
2022/07/29 00:37:23;;;;;;;0.22;0.22;;;14.40;99.90;;;;;;5073711;28;20052;-83
2022/07/29 00:39:49;;;;;;;0.10;0.10;;;14.40;99.90;;;;;;5073651;28;20040;-82
2022/07/29 00:42:16;;;;;;;0.15;0.15;;;14.40;99.90;;;;;;5071298;28;20482;-82
2022/07/29 00:44:41;;;;;;;0.10;0.10;;;14.40;99.90;;;;;;5073087;28;20131;-82
2022/07/29 00:47:09;;;;;;;0.00;0.00;;;14.40;99.90;;;;;;5072755;28;20131;-82
2022/07/29 00:49:35;;;;;;;0.00;0.00;;;14.40;99.90;;;;;;5073616;28;20033;-82
2022/07/29 00:52:02;;;;;;;0.08;0.08;;;14.30;99.90;;;;;;5073928;28;20032;-82
2022/07/29 00:54:28;;;;;;;0.00;0.00;;;14.30;99.90;;;;;;5071277;28;20033;-82
2022/07/29 00:56:57;;;;;;;0.00;0.00;;;14.30;99.90;;;;;;5073641;28;20040;-83
2022/07/29 00:59:23;;;;;;;0.10;0.10;;;14.20;99.90;;;;;;5073587;28;20044;-83
2022/07/29 01:01:49;;;;;;;0.00;0.00;;;14.20;99.90;;;;;;5056374;28;20059;-83
2022/07/29 01:04:14;;;;;;;0.00;0.00;;;14.10;99.90;;;;;;5054368;28;20035;-83
2022/07/29 01:06:41;;;;;;;0.15;0.15;;;14.10;99.90;;;;;;5073330;28;20044;-83
2022/07/29 01:09:09;;;;;;;0.10;0.10;;;14.10;99.90;;;;;;5056528;28;20437;-83
2022/07/29 01:11:35;;;;;;;0.00;0.00;;;14.10;99.90;;;;;;5073093;28;20044;-83
2022/07/29 01:14:02;;;;;;;0.68;0.68;;;14.10;99.90;;;;;;5071517;28;20047;-83
2022/07/29 01:16:35;;;;;;;0.08;0.08;;;14.20;99.90;;;;;;5072526;28;20056;-83
2022/07/29 01:19:17;;;;;;;0.17;0.17;;;14.20;99.90;;;;;;5073138;28;20094;-83
2022/07/29 01:21:57;;;;;;;0.17;0.17;;;14.20;99.90;;;;;;5056657;28;20049;-83
2022/07/29 01:24:39;;;;;;;0.05;0.05;;;14.10;99.90;;;;;;5054685;28;20088;-83
2022/07/29 01:27:28;;;;;;;0.10;0.10;;;14.10;99.90;;;;;;5072900;28;20056;-83
2022/07/29 01:29:58;;;;;;;0.10;0.10;;;14.10;99.90;;;;;;5067250;28;20052;-82
2022/07/29 01:32:31;;;;;;;0.00;0.00;;;14.10;99.90;;;;;;5071469;28;20481;-82
2022/07/29 01:35:20;;;;;;;0.90;0.13;;;14.10;99.90;;;;;;5072993;28;20037;-82
2022/07/29 01:38:13;;;;;;;0.30;0.15;;;14.10;99.90;;;;;;5072780;28;20532;-82
2022/07/29 01:40:53;;;;;;;0.10;0.10;;;14.00;99.90;;;;;;5072628;28;20040;-82
2022/07/29 01:43:27;;;;;;;0.00;0.00;;;14.00;99.90;;;;;;5053856;28;20166;-82
2022/07/29 01:46:05;;;;;;;0.00;0.00;;;14.00;99.90;;;;;;5072679;28;20489;-82
2022/07/29 01:48:39;;;;;;;0.10;0.10;;;14.00;99.90;;;;;;5069646;28;20493;-83
2022/07/29 01:51:07;;;;;;;0.00;0.00;;;14.00;99.90;;;;;;5061804;28;20048;-83
2022/07/29 01:53:38;;;;;;;0.00;0.00;;;14.00;99.90;;;;;;5066138;28;20113;-82
2022/07/29 01:56:06;;;;;;;0.40;0.40;;;14.00;99.90;;;;;;5065074;28;20044;-82
2022/07/29 01:58:34;;;;;;;0.00;0.00;;;14.00;99.90;;;;;;5071795;28;20037;-82
2022/07/29 02:01:02;;;;;;;0.00;0.00;;;14.10;99.90;;;;;;5052311;28;20055;-82
2022/07/29 02:03:30;;;;;;;0.00;0.00;;;14.00;99.90;;;;;;5038435;28;20045;-82
2022/07/29 02:05:58;;;;;;;0.00;0.00;;;14.10;99.90;;;;;;5055559;28;20044;-83
2022/07/29 02:08:25;;;;;;;0.75;0.17;;;14.10;99.90;;;;;;5072378;28;20502;-83
2022/07/29 02:10:53;;;;;;;0.10;0.10;;;14.10;99.90;;;;;;5038427;28;20045;-83
2022/07/29 02:13:20;;;;;;;0.00;0.00;;;14.20;99.90;;;;;;5052900;28;20044;-83
2022/07/29 02:15:48;;;;;;;0.00;0.00;;;14.20;99.90;;;;;;5052253;28;20067;-83
2022/07/29 02:18:20;;;;;;;0.03;0.03;;;14.20;99.90;;;;;;5052292;28;20053;-84
2022/07/29 02:20:53;;;;;;;1.58;0.20;;;14.20;99.90;;;;;;5066611;28;20394;-84
2022/07/29 02:23:22;;;;;;;0.00;0.00;;;14.20;99.90;;;;;;5072587;28;20044;-83
2022/07/29 02:25:54;;;;;;;0.00;0.00;;;14.20;99.90;;;;;;5070866;28;20043;-83
2022/07/29 02:28:22;;;;;;;0.00;0.00;;;14.20;99.90;;;;;;5067530;28;20051;-83
2022/07/29 02:30:51;;;;;;;0.00;0.00;;;14.20;99.90;;;;;;5072126;28;20040;-84
2022/07/29 02:33:18;;;;;;;0.00;0.00;;;14.20;99.90;;;;;;5072295;28;20040;-84
2022/07/29 02:35:46;;;;;;;0.43;0.43;;;14.20;99.90;;;;;;5055774;28;20475;-84
2022/07/29 02:41:03;;;;;;;0.00;0.00;;;14.20;99.90;;;;;;5072158;28;20463;-83
2022/07/29 02:43:31;;;;;;;0.28;0.28;;;14.20;99.90;;;;;;5055818;28;20044;-83
2022/07/29 02:45:59;;;;;;;0.00;0.00;;;14.20;99.90;;;;;;5071962;28;20109;-83
2022/07/29 02:48:39;;;;;;;0.10;0.10;;;14.20;99.90;;;;;;5053806;28;20045;-83
2022/07/29 02:51:13;;;;;;;0.00;0.00;;;14.20;99.90;;;;;;5071702;28;20037;-83
2022/07/29 02:53:43;;;;;;;0.10;0.10;;;14.10;99.90;;;;;;5072331;28;20037;-83
2022/07/29 02:56:14;;;;;;;0.10;0.10;;;14.10;99.90;;;;;;5071985;28;20032;-83
2022/07/29 02:58:49;;;;;;;0.10;0.10;;;14.10;99.90;;;;;;5054404;28;20048;-83
2022/07/29 03:01:19;;;;;;;0.00;0.00;;;14.10;99.90;;;;;;5071807;28;20085;-83
2022/07/29 03:03:48;;;;;;;0.00;0.00;;;14.10;99.90;;;;;;5071851;28;20124;-82
2022/07/29 03:06:15;;;;;;;0.00;0.00;;;14.00;99.90;;;;;;5071838;28;20045;-83
2022/07/29 03:08:42;;;;;;;0.10;0.10;;;14.10;99.90;;;;;;5069779;28;20044;-83
2022/07/29 03:11:08;;;;;;;0.03;0.03;;;14.10;99.90;;;;;;5072962;28;20044;-83
2022/07/29 03:13:36;;;;;;;0.30;0.20;;;14.10;99.90;;;;;;5075551;28;20043;-83
2022/07/29 03:16:02;;;;;;;0.00;0.00;;;14.10;99.90;;;;;;5068553;28;20060;-82
2022/07/29 03:18:28;;;;;;;0.22;0.20;;;14.10;99.90;;;;;;5041941;28;20036;-82
2022/07/29 03:20:54;;;;;;;0.00;0.00;;;14.10;99.90;;;;;;5057211;28;20043;-82
2022/07/29 03:23:22;;;;;;;0.10;0.10;;;14.10;99.90;;;;;;5075062;28;20040;-82
2022/07/29 03:25:49;;;;;;;0.20;0.20;;;14.20;99.90;;;;;;5075093;28;20470;-82
2022/07/29 03:28:15;;;;;;;0.10;0.10;;;14.10;99.90;;;;;;5074978;28;20044;-83
2022/07/29 03:30:40;;;;;;;0.47;0.47;;;14.20;99.90;;;;;;5057787;28;20359;-83
2022/07/29 03:33:06;;;;;;;0.10;0.10;;;14.20;99.90;;;;;;5058201;28;20028;-83
2022/07/29 03:35:32;;;;;;;0.10;0.10;;;14.20;99.90;;;;;;5075181;28;20082;-84
2022/07/29 03:37:59;;;;;;;0.00;0.00;;;14.20;99.90;;;;;;5058597;28;20044;-84
2022/07/29 03:40:49;;;;;;;0.30;0.30;;;14.20;99.90;;;;;;5057056;28;20071;-84
2022/07/29 03:43:18;;;;;;;0.10;0.10;;;14.20;99.90;;;;;;5074973;28;20398;-84
2022/07/29 03:45:47;;;;;;;0.00;0.00;;;14.20;99.90;;;;;;5074938;28;20087;-84
2022/07/29 03:48:17;;;;;;;0.08;0.08;;;14.20;99.90;;;;;;5074866;28;20080;-84
2022/07/29 03:50:44;;;;;;;0.10;0.10;;;14.20;99.90;;;;;;5057305;28;20200;-83
2022/07/29 03:53:10;;;;;;;0.28;0.28;;;14.10;99.90;;;;;;5074824;28;20426;-84
2022/07/29 03:55:50;;;;;;;0.00;0.00;;;14.10;99.90;;;;;;5074287;28;20069;-83
2022/07/29 03:58:17;;;;;;;0.10;0.10;;;14.10;99.90;;;;;;5058154;28;20149;-84
2022/07/29 04:00:44;;;;;;;0.10;0.10;;;14.10;99.90;;;;;;5058180;28;20093;-82
2022/07/29 04:03:10;;;;;;;2.90;0.30;;;14.10;99.90;;;;;;5073649;28;20051;-82
2022/07/29 04:05:36;;;;;;;0.20;0.20;;;14.10;99.90;;;;;;5074321;28;20482;-82
2022/07/29 04:08:02;;;;;;;0.20;0.20;;;14.10;99.90;;;;;;5041035;28;20086;-82
2022/07/29 04:10:27;;;;;;;0.00;0.00;;;14.00;99.90;;;;;;5058035;28;20033;-82
2022/07/29 04:12:53;;;;;;;0.20;0.20;;;14.00;99.90;;;;;;5071306;28;20079;-82
2022/07/29 04:15:19;;;;;;;0.00;0.00;;;14.00;99.90;;;;;;5055038;28;20175;-82
2022/07/29 04:17:45;;;;;;;0.00;0.00;;;14.00;99.90;;;;;;5057608;28;20347;-82
2022/07/29 04:20:13;;;;;;;0.52;0.28;;;14.00;99.90;;;;;;5024896;28;20110;-83
2022/07/29 04:22:40;;;;;;;0.00;0.00;;;14.00;99.90;;;;;;5055001;28;20143;-83
2022/07/29 04:25:06;;;;;;;0.00;0.00;;;14.00;99.90;;;;;;5057402;28;20043;-83
2022/07/29 04:27:32;;;;;;;0.00;0.00;;;14.00;99.90;;;;;;5073987;28;20040;-83
2022/07/29 04:29:58;;;;;;;0.00;0.00;;;14.00;99.90;;;;;;5057472;28;20041;-83
2022/07/29 04:32:24;;;;;;;0.00;0.00;;;14.00;99.90;;;;;;5057344;28;20101;-82
2022/07/29 04:34:50;;;;;;;0.00;0.00;;;14.00;99.90;;;;;;5072305;28;20094;-82
2022/07/29 04:37:16;;;;;;;0.10;0.10;;;13.90;99.90;;;;;;5074200;28;20432;-82
2022/07/29 04:39:42;;;;;;;0.47;0.40;;;14.00;99.90;;;;;;5057475;28;20041;-82
2022/07/29 04:42:07;;;;;;;0.20;0.20;;;14.00;99.90;;;;;;5073868;28;20041;-82
2022/07/29 04:44:33;;;;;;;4.47;0.65;;;14.00;99.90;;;;;;5056099;28;20040;-82
2022/07/29 04:46:58;;;;;;;0.85;0.70;;;14.00;99.90;;;;;;5073606;28;20051;-82
2022/07/29 04:49:25;;;;;;;0.10;0.10;;;14.10;99.90;;;;;;5073718;28;20509;-82
2022/07/29 04:51:50;;;;;;;0.10;0.10;;;14.10;99.90;;;;;;5040653;28;20052;-83
2022/07/29 04:54:16;;;;;;;0.00;0.00;;;14.10;99.90;;;;;;5071313;28;20048;-83
2022/07/29 04:56:42;;;;;;;0.00;0.00;;;14.20;99.90;;;;;;5053898;28;20028;-83
2022/07/29 04:59:07;;;;;;;0.00;0.00;;;14.20;99.90;;;;;;5056941;28;20042;-83
2022/07/29 05:01:33;;;;;;;0.17;0.17;;;14.30;99.90;;;;;;5056497;28;20050;-83
2022/07/29 05:03:59;;;;;;;0.20;0.13;;;14.30;99.90;;;;;;5056748;28;20048;-83
2022/07/29 05:06:24;;;;;;;0.00;0.00;;;14.40;99.90;;;;;;5054334;28;20117;-83
2022/07/29 05:08:50;;;;;;;0.10;0.10;;;14.40;99.90;;;;;;5073321;28;20040;-83
2022/07/29 05:11:16;;;;;;;0.00;0.00;;;14.50;99.90;;;;;;5056661;28;20032;-83
2022/07/29 05:13:42;;;;;;;0.00;0.00;;;14.50;99.90;;;;;;5040122;28;20075;-83
2022/07/29 05:16:08;;;;;;;3.83;0.30;;;14.60;99.90;;;;;;5072219;28;20056;-83
2022/07/29 05:18:34;;;;;;;0.43;0.25;;;14.70;99.90;;;;;;5070641;28;20043;-83
2022/07/29 05:21:00;;;;;;;0.03;0.03;;;14.70;99.90;;;;;;5056318;28;20045;-83
2022/07/29 05:23:26;;;;;;;0.05;0.05;;;14.70;99.90;;;;;;5039794;28;20101;-83
2022/07/29 05:25:51;;;;;;;0.10;0.10;;;14.80;99.90;;;;;;5073185;28;20048;-83
2022/07/29 05:28:17;;;;;;;0.05;0.05;;;14.90;99.90;;;;;;5072290;28;20478;-83
2022/07/29 05:30:44;;;;;;;0.10;0.10;;;15.00;99.90;;;;;;5062320;22;20045;-84
2022/07/29 05:33:10;;;;;;;0.10;0.10;;;15.10;99.90;;;;;;5052111;28;20044;-84
2022/07/29 05:35:37;;;;;;;0.10;0.10;;;15.20;99.90;;;;;;5052981;28;20044;-84
2022/07/29 05:38:03;;;;;;;0.10;0.10;;;15.30;99.90;;;;;;5035134;28;20052;-84
2022/07/29 05:40:29;;;;;;;0.00;0.00;;;15.30;99.90;;;;;;5052445;28;20044;-84
2022/07/29 05:42:55;;;;;;;0.08;0.08;;;15.40;99.90;;;;;;5036219;28;20390;-83
2022/07/29 05:45:21;;;;;;;0.00;0.00;;;15.40;99.90;;;;;;5019731;28;20482;-83
2022/07/29 05:47:46;;;;;;;0.17;0.17;;;15.50;99.90;;;;;;5033923;28;20041;-83
2022/07/29 05:50:12;;;;;;;0.20;0.20;;;15.60;99.90;;;;;;5036109;28;20376;-83
2022/07/29 05:52:38;;;;;;;0.20;0.20;;;15.70;99.90;;;;;;5036026;28;20043;-83
2022/07/29 05:55:05;;;;;;;0.17;0.17;;;15.80;99.90;;;;;;5052993;28;20041;-83
2022/07/29 05:57:31;;;;;;;0.00;0.00;;;15.90;99.90;;;;;;5036260;28;20041;-83
2022/07/29 05:59:57;;;;;;;0.00;0.00;;;16.30;99.90;;;;;;5050045;28;20037;-83
2022/07/29 06:02:23;;;;;;;0.20;0.10;;;16.90;99.90;;;;;;5033135;28;20499;-83
2022/07/29 06:04:49;;;;;;;0.10;0.10;;;17.50;99.90;;;;;;5051764;28;20131;-84
2022/07/29 06:07:15;;;;;;;0.10;0.10;;;17.80;99.90;;;;;;5052453;28;20048;-83
2022/07/29 06:09:42;;;;;;;0.00;0.00;;;17.80;99.90;;;;;;5052397;28;20479;-83
2022/07/29 06:12:08;;;;;;;0.15;0.15;;;17.70;99.90;;;;;;5033961;28;20045;-83
2022/07/29 06:14:35;;;;;;;0.10;0.10;;;17.70;99.90;;;;;;5049879;28;20068;-83
2022/07/29 06:17:01;;;;;;;0.10;0.10;;;17.80;99.90;;;;;;5026684;28;20033;-83
2022/07/29 06:19:26;;;;;;;0.10;0.10;;;17.90;99.90;;;;;;5043002;28;20498;-83
2022/07/29 06:21:52;;;;;;;1.38;0.20;;;18.00;99.90;;;;;;5041978;28;20044;-83
2022/07/29 06:24:18;;;;;;;0.10;0.10;;;18.00;99.90;;;;;;5035593;28;20487;-83
2022/07/29 06:26:44;;;;;;;0.00;0.00;;;17.90;99.90;;;;;;5051902;28;20223;-83
2022/07/29 06:29:11;;;;;;;0.00;0.00;;;17.90;99.90;;;;;;5055932;28;20124;-83
2022/07/29 06:31:37;;;;;;;0.90;0.20;;;17.90;99.90;;;;;;5058377;28;20067;-83
2022/07/29 06:34:03;;;;;;;0.00;0.00;;;18.10;99.90;;;;;;5074546;28;20036;-83
2022/07/29 06:36:29;;;;;;;0.10;0.10;;;19.00;99.90;;;;;;5075135;28;20036;-82
2022/07/29 06:38:55;;;;;;;0.10;0.10;;;19.10;99.90;;;;;;5075011;28;20044;-83
2022/07/29 06:41:22;;;;;;;0.10;0.10;;;19.40;99.90;;;;;;5058444;28;20047;-82
2022/07/29 06:43:49;;;;;;;0.10;0.10;;;19.90;99.90;;;;;;5072962;28;20119;-85
2022/07/29 06:46:17;;;;;;;0.05;0.05;;;20.70;99.90;;;;;;5077005;28;20394;-85
2022/07/29 06:48:43;;;;;;;0.10;0.10;;;22.80;99.90;;;;;;5046423;28;20043;-85
2022/07/29 06:51:11;;;;;;;0.00;0.00;;;23.40;99.90;;;;;;5077006;28;20604;-85
2022/07/29 06:53:37;;;;;;;0.00;0.00;;;24.00;99.30;;;;;;5078496;28;20052;-85
2022/07/29 06:56:04;;;;;;;0.10;0.10;;;24.20;98.30;;;;;;5063311;28;20504;-85
2022/07/29 06:58:30;;;;;;;0.00;0.00;;;24.40;97.90;;;;;;5052063;28;20517;-86
2022/07/29 07:00:58;;;;;;;0.13;0.13;;;24.30;96.40;;;;;;5062259;28;20131;-88
2022/07/29 07:03:24;;;;;;;0.10;0.10;;;25.00;96.50;;;;;;5046514;28;20047;-84
2022/07/29 07:05:53;;;;;;;0.00;0.00;;;25.90;95.80;;;;;;5078923;28;20044;-84
2022/07/29 07:08:20;;;;;;;0.10;0.10;;;26.90;93.50;;;;;;5062489;28;20085;-84
2022/07/29 07:10:46;;;;;;;0.10;0.10;;;27.80;92.40;;;;;;5061327;28;20036;-84
2022/07/29 07:13:12;;;;;;;0.10;0.10;;;28.30;90.90;;;;;;5079083;28;20055;-84
2022/07/29 07:15:38;;;;;;;0.00;0.00;;;28.20;91.00;;;;;;5078961;28;20503;-84
2022/07/29 07:18:08;;;;;;;0.10;0.10;;;27.90;90.60;;;;;;5062223;28;20087;-84
2022/07/29 07:20:34;;;;;;;0.20;0.13;;;27.60;90.70;;;;;;5077728;28;20040;-84
2022/07/29 07:23:00;;;;;;;0.05;0.05;;;27.10;90.90;;;;;;5078891;28;20044;-84
2022/07/29 07:25:26;;;;;;;0.00;0.00;;;27.10;90.90;;;;;;5078392;28;20114;-85
2022/07/29 07:27:51;;;;;;;0.10;0.10;;;27.50;90.50;;;;;;5078418;28;20144;-84
2022/07/29 07:30:17;;;;;;;0.63;0.55;;;27.90;89.60;;;;;;5059562;28;20044;-85
2022/07/29 07:32:43;;;;;;;0.10;0.10;;;28.30;90.50;;;;;;5041306;28;20459;-84
2022/07/29 07:35:10;;;;;;;0.10;0.10;;;28.50;88.00;;;;;;5054505;28;20493;-84
2022/07/29 07:37:37;;;;;;;0.03;0.03;;;29.10;88.70;;;;;;5078133;28;20630;-87
2022/07/29 07:40:04;;;;;;;0.10;0.10;;;29.10;87.50;;;;;;5078183;28;20054;-87
2022/07/29 07:42:30;;;;;;;0.28;0.28;;;29.70;86.20;;;;;;5059829;28;20052;-87
2022/07/29 07:44:55;;;;;;;0.20;0.20;;;30.20;86.30;;;;;;5062219;28;20462;-87
2022/07/29 07:47:23;;;;;;;0.10;0.10;;;30.30;86.60;;;;;;5061291;28;20063;-87
2022/07/29 07:49:52;;;;;;;0.10;0.10;;;29.80;82.30;;;;;;5061148;28;20036;-87
2022/07/29 07:52:20;;;;;;;0.08;0.08;;;29.40;82.50;;;;;;5076360;28;20043;-87
2022/07/29 07:54:46;;;;;;;0.17;0.17;;;28.90;86.10;;;;;;5061650;28;20119;-85
2022/07/29 07:57:13;;;;;;;0.00;0.00;;;28.70;84.00;;;;;;5061050;28;20047;-85
2022/07/29 07:59:39;;;;;;;0.30;0.30;;;28.20;83.90;;;;;;5078046;28;20039;-84
2022/07/29 08:02:06;;;;;;;0.43;0.43;;;28.00;85.90;;;;;;5043348;28;20038;-84
2022/07/29 08:04:32;;;;;;;0.77;0.55;;;27.70;84.30;;;;;;5061170;28;20044;-84
2022/07/29 08:06:59;;;;;;;0.05;0.05;;;27.30;83.70;;;;;;5078046;28;20347;-84
2022/07/29 08:09:26;;;;;;;0.60;0.20;;;27.60;86.80;;;;;;5077998;28;20044;-84
2022/07/29 08:11:52;;;;;;;0.10;0.10;;;26.80;84.80;;;;;;5060148;28;20143;-86
2022/07/29 08:14:19;;;;;;;2.22;0.60;;;26.10;86.50;;;;;;5076283;28;20513;-86
2022/07/29 08:16:44;;;;;;;0.13;0.13;;;25.30;87.80;;;;;;5060927;28;20070;-86
2022/07/29 08:19:10;;;;;;;0.00;0.00;;;24.50;87.80;;;;;;5077724;28;20048;-86
2022/07/29 08:21:36;;;;;;;0.43;0.30;;;23.80;90.30;;;;;;5077195;28;20474;-86
2022/07/29 08:26:47;;;;;;;0.00;0.00;;;23.00;91.80;;;;;;5076829;28;20048;-84
2022/07/29 08:29:13;;;;;;;0.32;0.22;;;22.70;91.70;;;;;;5060633;28;20040;-83
2022/07/29 08:31:40;;;;;;;0.00;0.00;;;22.40;92.30;;;;;;5077729;28;20046;-83
2022/07/29 08:34:06;;;;;;;0.05;0.05;;;22.20;93.00;;;;;;5059587;28;20047;-84
2022/07/29 08:36:33;;;;;;;0.08;0.08;;;21.90;93.40;;;;;;5077218;28;20042;-84
2022/07/29 08:38:59;;;;;;;0.10;0.10;;;21.60;93.50;;;;;;5077585;28;20047;-83
2022/07/29 08:41:25;;;;;;;0.00;0.00;;;21.40;93.90;;;;;;5043922;28;20089;-84
2022/07/29 08:43:52;;;;;;;0.10;0.10;;;21.40;94.20;;;;;;5075701;28;20113;-84
2022/07/29 08:46:18;;;;;;;0.10;0.10;;;21.20;94.70;;;;;;5076296;28;20043;-85
2022/07/29 08:48:45;;;;;;;0.00;0.00;;;21.00;94.60;;;;;;5059890;28;20072;-85
2022/07/29 08:51:19;;;;;;;0.10;0.10;;;20.80;95.00;;;;;;5076365;28;20054;-84
2022/07/29 08:53:50;;;;;;;0.10;0.10;;;20.60;96.10;;;;;;5050622;28;20439;-84
2022/07/29 08:56:17;;;;;;;0.20;0.20;;;20.60;96.50;;;;;;5052700;28;20063;-84
2022/07/29 08:58:44;;;;;;;0.28;0.28;;;20.50;96.50;;;;;;5073994;28;20370;-84
2022/07/29 09:01:11;;;;;;;0.17;0.13;;;20.50;96.90;;;;;;5076513;28;20051;-86
2022/07/29 09:03:39;;;;;;;0.00;0.00;;;20.40;96.00;;;;;;5060685;28;20040;-86
2022/07/29 09:06:05;;;;;;;0.00;0.00;;;20.30;96.40;;;;;;5059099;28;20045;-86
2022/07/29 09:08:32;;;;;;;0.00;0.00;;;20.20;97.20;;;;;;5076021;28;20028;-86
2022/07/29 09:10:59;;;;;;;0.05;0.05;;;20.10;96.50;;;;;;5027073;28;20048;-85
2022/07/29 09:13:26;;;;;;;0.10;0.10;;;;;;;;;;5076730;28;20048;-85
2022/07/29 09:15:52;;;;;;;0.00;0.00;;;19.80;97.80;;;;;;5075569;28;20039;-86
2022/07/29 09:18:40;;;;;;;0.10;0.10;;;19.80;98.30;;;;;;5075498;28;20537;-84
2022/07/29 09:24:10;;;;;;;0.15;0.15;;;19.80;98.90;;;;;;5075623;28;20048;-84
2022/07/29 09:26:40;;;;;;;0.00;0.00;;;19.80;98.30;;;;;;5056039;28;20040;-84
2022/07/29 09:29:11;;;;;;;0.10;0.10;;;19.80;99.00;;;;;;5058959;28;20508;-84
2022/07/29 09:31:39;;;;;;;0.05;0.05;;;19.70;99.20;;;;;;5075939;28;20044;-84
2022/07/29 09:34:07;;;;;;;0.10;0.10;;;19.80;99.10;;;;;;5059392;28;20043;-85
2022/07/29 09:36:44;;;;;;;0.10;0.10;;;19.90;98.90;;;;;;5075349;28;20040;-85
2022/07/29 09:39:12;;;;;;;0.65;0.35;;;20.00;98.90;;;;;;5074566;28;20052;-85
2022/07/29 09:41:53;;;;;;;0.20;0.20;;;20.10;98.70;;;;;;5076092;28;20050;-85
2022/07/29 09:44:20;;;;;;;0.45;0.22;;;20.20;98.80;;;;;;5059171;28;20051;-85
2022/07/29 09:46:54;;;;;;;0.22;0.22;;;20.30;98.80;;;;;;5058804;28;20047;-85
2022/07/29 09:49:20;;;;;;;0.10;0.10;;;20.40;99.00;;;;;;5072472;28;20540;-85
2022/07/29 09:51:47;;;;;;;0.43;0.40;;;20.50;98.80;;;;;;5037872;28;20083;-84
2022/07/29 09:54:26;;;;;;;1.27;0.45;;;20.60;98.80;;;;;;5042069;28;20064;-83
2022/07/29 09:56:52;;;;;;;0.20;0.10;;;20.60;98.90;;;;;;5065090;28;20067;-84
2022/07/29 09:59:20;;;;;;;0.00;0.00;;;20.80;98.80;;;;;;5049793;28;20075;-84
2022/07/29 10:01:46;;;;;;;0.22;0.15;;;20.90;98.80;;;;;;5057626;28;20040;-84
2022/07/29 10:04:12;;;;;;;0.00;0.00;;;21.10;99.00;;;;;;5059360;28;20379;-84
2022/07/29 10:06:59;;;;;;;0.00;0.00;;;21.20;98.60;;;;;;5057961;28;20050;-84
2022/07/29 10:09:25;;;;;;;0.10;0.10;;;21.60;99.30;;;;;;5058500;28;20055;-84
2022/07/29 10:12:14;;;;;;;0.10;0.10;;;22.10;98.30;;;;;;5058016;28;20044;-84
2022/07/29 10:14:42;;;;;;;0.00;0.00;;;23.00;97.80;;;;;;5073351;28;20110;-85
2022/07/29 10:17:09;;;;;;;0.10;0.10;;;24.70;97.00;;;;;;5054704;28;20040;-85
2022/07/29 10:19:37;;;;;;;0.00;0.00;;;26.30;95.60;;;;;;5071471;28;20054;-84
2022/07/29 10:22:08;;;;;;;0.17;0.17;;;27.60;92.90;;;;;;5079477;28;20089;-84
2022/07/29 10:24:35;;;;;;;0.08;0.08;;;28.20;91.50;;;;;;5077703;28;20044;-86
2022/07/29 10:27:02;;;;;;;0.30;0.30;;;28.10;91.70;;;;;;5062451;28;20047;-87
2022/07/29 10:29:31;;;;;;;0.30;0.20;;;28.20;90.70;;;;;;5050361;28;20060;-86
2022/07/29 10:32:20;;;;;;;0.15;0.15;;;29.40;91.00;;;;;;5058746;28;20103;-86
2022/07/29 10:34:46;;;;;;;1.25;0.25;;;29.50;87.70;;;;;;5062349;28;20370;-86
2022/07/29 10:37:52;;;;;;;0.20;0.20;;;28.60;87.30;;;;;;5097555;28;20043;-85
2022/07/29 10:43:47;;;;;;;0.00;0.00;;;26.50;90.00;;;;;;5068100;28;20040;-86
2022/07/29 10:46:14;;;;;;;0.17;0.17;;;25.60;90.50;;;;;;5074154;28;20044;-86
2022/07/29 10:49:18;;;;;;;0.50;0.50;;;25.00;92.30;;;;;;5071986;28;20044;-86
2022/07/29 10:52:05;;;;;;;0.28;0.10;;;24.40;92.20;;;;;;5078646;28;20040;-86
2022/07/29 10:54:43;;;;;;;0.15;0.10;;;23.80;93.80;;;;;;5062252;28;20082;-86
2022/07/29 10:57:29;;;;;;;0.10;0.10;;;23.50;93.70;;;;;;5059823;28;20039;-83
2022/07/29 11:00:10;;;;;;;0.50;0.30;;;23.20;94.90;;;;;;5062888;28;20040;-84
2022/07/29 11:02:36;;;;;;;0.38;0.38;;;22.90;94.70;;;;;;5078729;28;20396;-83
2022/07/29 11:05:13;;;;;;;0.25;0.25;;;22.80;95.20;;;;;;5062723;28;20036;-83
2022/07/29 11:08:00;;;;;;;0.45;0.45;;;22.60;95.20;;;;;;5060643;28;20105;-83
2022/07/29 11:10:26;;;;;;;0.15;0.15;;;22.40;94.90;;;;;;5079098;28;20043;-83
2022/07/29 11:12:52;;;;;;;0.30;0.28;;;22.20;95.00;;;;;;5085215;28;20370;-84
2022/07/29 11:15:21;;;;;;;0.00;0.00;;;22.00;95.70;;;;;;5062161;28;20046;-86
2022/07/29 11:18:00;;;;;;;0.40;0.40;;;21.80;95.90;;;;;;5078247;28;20036;-84
2022/07/29 11:20:36;;;;;;;0.30;0.30;;;21.60;96.10;;;;;;5062281;28;20043;-84
2022/07/29 11:23:19;;;;;;;0.28;0.28;;;21.50;97.30;;;;;;5057886;28;20093;-84
2022/07/29 11:25:45;;;;;;;0.73;0.45;;;21.50;97.00;;;;;;5041829;28;20051;-85
2022/07/29 11:28:19;;;;;;;0.17;0.17;;;21.60;97.50;;;;;;5072278;28;20036;-84
2022/07/29 11:30:53;;;;;;;0.10;0.10;;;21.70;96.80;;;;;;5077135;28;20056;-84
2022/07/29 11:33:32;;;;;;;0.10;0.10;;;21.90;97.10;;;;;;5058883;28;20048;-84
2022/07/29 11:36:11;;;;;;;2.55;0.40;;;22.10;96.80;;;;;;5077523;28;20032;-85
2022/07/29 11:38:37;;;;;;;0.25;0.22;;;22.40;96.50;;;;;;5061033;28;20047;-84
2022/07/29 11:41:22;;;;;;;0.20;0.20;;;22.60;97.10;;;;;;5061466;28;20105;-85
2022/07/29 11:43:52;;;;;;;0.00;0.00;;;23.00;95.90;;;;;;5077592;28;20460;-84
2022/07/29 11:46:43;;;;;;;0.03;0.03;;;23.10;95.20;;;;;;5078195;28;20071;-84
2022/07/29 11:49:09;;;;;;;0.20;0.20;;;23.20;94.40;;;;;;5078099;28;20052;-84
2022/07/29 11:51:37;;;;;;;0.05;0.05;;;23.40;95.30;;;;;;5045442;28;20483;-84
2022/07/29 11:54:04;;;;;;;0.03;0.03;;;23.60;94.70;;;;;;5078000;28;20028;-84
2022/07/29 11:56:32;;;;;;;0.10;0.10;;;23.70;94.50;;;;;;5057871;28;20044;-85
2022/07/29 11:59:05;;;;;;;0.10;0.10;;;23.80;94.50;;;;;;5055950;28;20051;-84
2022/07/29 12:01:32;;;;;;;0.30;0.10;;;23.80;94.30;;;;;;5061171;28;20048;-84
2022/07/29 12:04:08;;;;;;;0.00;0.00;;;23.90;94.90;;;;;;5060255;28;20523;-86
2022/07/29 12:06:34;;;;;;;;;;;24.00;94.30;;;;;;5072391;28;20036;-86
2022/07/29 12:09:00;;;;;;;0.10;0.10;;;24.00;94.60;;;;;;5069271;28;19927;-85
2022/07/29 12:11:26;;;;;;;0.05;0.05;;;24.10;95.40;;;;;;5053881;28;20040;-86
2022/07/29 12:13:52;;;;;;;0.30;0.30;;;24.30;94.70;;;;;;5040740;28;20127;-86
2022/07/29 12:16:20;;;;;;;0.25;0.15;;;24.40;93.90;;;;;;5069766;28;20031;-86
2022/07/29 12:19:00;;;;;;;0.10;0.10;;;24.60;93.50;;;;;;5074605;28;20067;-85
2022/07/29 12:21:26;;;;;;;0.10;0.10;;;24.80;93.70;;;;;;5041170;28;20036;-85
2022/07/29 12:23:54;;;;;;;0.10;0.10;;;25.10;92.60;;;;;;5041501;28;20045;-85
2022/07/29 12:26:20;;;;;;;0.00;0.00;;;25.30;92.70;;;;;;5059021;28;20040;-85
2022/07/29 12:28:45;;;;;;;0.25;0.25;;;25.40;92.50;;;;;;5043954;28;20036;-85
2022/07/29 12:31:15;;;;;;;0.30;0.30;;;25.20;93.20;;;;;;5060461;28;20051;-85
2022/07/29 12:33:41;;;;;;;0.20;0.20;;;25.10;93.70;;;;;;5077669;28;20032;-85
2022/07/29 12:36:07;;;;;;;0.20;0.20;;;25.00;93.40;;;;;;5063068;28;20221;-85
2022/07/29 12:38:35;;;;;;;0.17;0.17;;;25.00;93.10;;;;;;5073450;28;20123;-85
2022/07/29 12:41:01;;;;;;;0.17;0.17;;;24.80;92.90;;;;;;5077040;28;20044;-85
2022/07/29 12:43:27;;;;;;;0.10;0.10;;;24.60;92.60;;;;;;5075203;28;20461;-84
2022/07/29 12:45:55;;;;;;;0.00;0.00;;;24.60;93.30;;;;;;5076876;28;20101;-85
2022/07/29 12:48:38;;;;;;;0.45;0.17;;;24.70;93.90;;;;;;5077096;28;20040;-85
2022/07/29 12:51:06;;;;;;;0.20;0.20;;;24.70;93.40;;;;;;5058525;28;20039;-84
2022/07/29 12:53:32;;;;;;;0.10;0.10;;;24.80;92.40;;;;;;5057497;28;20044;-84
2022/07/29 12:56:01;;;;;;;0.20;0.20;;;25.00;93.80;;;;;;5075360;28;20039;-84
2022/07/29 12:58:34;;;;;;;0.60;0.60;;;25.40;93.60;;;;;;5076353;28;20048;-83
2022/07/29 13:01:08;;;;;;;0.63;0.17;;;25.90;92.80;;;;;;5016152;23;20473;-85
2022/07/29 13:03:51;;;;;;;0.20;0.20;;;26.90;92.40;;;;;;5111071;27;1280363;-85
2022/07/29 13:06:41;;;;;;;0.25;0.25;;;27.90;91.70;;;;;;5114068;28;20071;-84
2022/07/29 13:09:15;;;;;;;0.10;0.10;;;28.40;90.20;;;;;;5114284;28;20420;-84
2022/07/29 13:11:52;;;;;;;0.10;0.10;;;28.30;89.10;;;;;;5084843;28;20127;-84